Time;durP1;ratioP1;P1;durP2;ratioP2;P2;SDS_P1;SDS_P2;PMS_P1;PMS_P2;Temp;Humidity;BMP_temperature;BMP_pressure;BME280_temperature;BME280_humidity;BME280_pressure;Samples;Min_cycle;Max_cycle;Signal;HPM_P1;HPM_P2
2022/03/09 00:00:48;;;;;;;4.57;1.30;;;;;;;10.88;83.25;100564.22;2109084;28;20036;-80
2022/03/09 00:02:09;;;;;;;2.92;1.40;;;;;;;10.89;83.20;100565.13;2106018;28;20373;-81
2022/03/09 00:03:32;;;;;;;16.48;10.93;;;;;;;10.82;82.96;100568.56;2104913;28;20057;-81
2022/03/09 00:04:54;;;;;;;12.00;7.00;;;;;;;10.67;82.97;100562.22;2102165;28;20056;-80
2022/03/09 00:06:18;;;;;;;35.83;26.13;;;;;;;10.68;83.34;100557.84;2102157;28;20440;-80
2022/03/09 00:07:41;;;;;;;27.50;19.05;;;;;;;10.72;83.85;100551.72;2102617;28;20052;-80
2022/03/09 00:09:05;;;;;;;16.17;10.00;;;;;;;10.77;83.33;100550.88;2110717;28;20104;-80
2022/03/09 00:10:28;;;;;;;14.05;6.75;;;;;;;10.81;83.30;100554.47;2107322;28;20103;-79
2022/03/09 00:11:52;;;;;;;8.27;3.88;;;;;;;10.86;83.23;100550.13;2104856;28;20065;-80
2022/03/09 00:13:15;;;;;;;9.75;5.43;;;;;;;10.87;82.94;100553.66;2104874;28;20503;-80
2022/03/09 00:14:37;;;;;;;15.25;11.93;;;;;;;10.84;82.80;100543.03;2104875;28;20101;-80
2022/03/09 00:15:59;;;;;;;10.30;6.32;;;;;;;10.79;82.73;100548.28;2104724;28;20504;-80
2022/03/09 00:17:21;;;;;;;5.32;2.83;;;;;;;10.74;82.82;100542.06;2101911;28;20274;-80
2022/03/09 00:18:44;;;;;;;4.40;2.58;;;;;;;10.76;82.95;100545.63;2102196;28;20063;-80
2022/03/09 00:20:08;;;;;;;4.80;2.67;;;;;;;10.75;82.58;100539.44;2093943;28;20052;-79
2022/03/09 00:21:32;;;;;;;3.30;1.95;;;;;;;10.73;82.90;100542.94;2102833;28;20048;-79
2022/03/09 00:22:55;;;;;;;3.70;1.83;;;;;;;10.71;82.69;100547.28;2110918;28;20099;-79
2022/03/09 00:24:19;;;;;;;4.18;2.40;;;;;;;10.71;82.51;100548.19;2104670;28;20040;-80
2022/03/09 00:25:41;;;;;;;32.00;24.17;;;;;;;10.69;82.42;100543.78;2102420;28;20411;-80
2022/03/09 00:27:04;;;;;;;38.90;29.65;;;;;;;10.61;82.30;100545.44;2113425;28;20055;-80
2022/03/09 00:28:27;;;;;;;63.05;48.45;;;;;;;10.56;82.39;100547.13;2104754;28;20046;-80
2022/03/09 00:29:50;;;;;;;49.35;34.42;;;;;;;10.56;82.41;100547.13;2102188;28;20106;-80
2022/03/09 00:31:11;;;;;;;32.60;24.15;;;;;;;10.55;82.43;100542.72;2102058;28;20491;-80
2022/03/09 00:32:34;;;;;;;22.58;14.93;;;;;;;10.53;82.26;100536.53;2110309;28;20047;-80
2022/03/09 00:33:55;;;;;;;12.60;7.05;;;;;;;10.52;82.41;100535.63;2104571;28;20044;-79
2022/03/09 00:35:19;;;;;;;16.42;9.80;;;;;;;10.56;82.50;100541.84;2110940;28;20455;-81
2022/03/09 00:36:44;;;;;;;15.82;11.57;;;;;;;10.62;82.16;100542.81;2104751;28;20044;-81
2022/03/09 00:38:07;;;;;;;6.85;4.00;;;;;;;10.64;81.99;100538.41;2110905;28;20047;-81
2022/03/09 00:39:29;;;;;;;6.45;3.15;;;;;;;10.64;81.58;100535.78;2104648;28;20357;-80
2022/03/09 00:40:52;;;;;;;9.52;5.63;;;;;;;10.65;81.32;100539.31;2110403;28;20043;-80
2022/03/09 00:42:15;;;;;;;7.28;3.47;;;;;;;10.62;81.10;100534.91;2113161;28;20047;-81
2022/03/09 00:43:38;;;;;;;3.88;2.30;;;;;;;10.59;81.26;100534.84;2104802;28;20055;-80
2022/03/09 00:45:00;;;;;;;2.92;1.40;;;;;;;10.56;81.33;100532.19;2104389;28;20043;-81
2022/03/09 00:46:21;;;;;;;3.72;2.00;;;;;;;10.53;81.08;100524.22;2118725;27;20091;-80
2022/03/09 00:47:44;;;;;;;3.38;1.48;;;;;;;10.53;81.46;100529.50;2107197;28;20040;-80
2022/03/09 00:49:05;;;;;;;2.80;1.70;;;;;;;10.54;81.33;100518.09;2102125;28;20219;-81
2022/03/09 00:50:28;;;;;;;1.85;1.58;;;;;;;10.55;81.38;100524.25;2110259;28;20134;-80
2022/03/09 00:51:52;;;;;;;3.83;2.05;;;;;;;10.52;81.04;100524.19;2107284;28;20047;-81
2022/03/09 00:53:14;;;;;;;6.47;1.98;;;;;;;10.43;81.25;100513.56;2113126;28;20100;-80
2022/03/09 00:54:37;;;;;;;5.30;2.80;;;;;;;10.38;81.41;100514.38;2098883;28;20083;-79
2022/03/09 00:56:00;;;;;;;7.25;2.60;;;;;;;10.38;81.30;100518.75;2107565;28;20052;-80
2022/03/09 00:57:22;;;;;;;24.90;10.45;;;;;;;10.35;81.41;100511.69;2104643;28;20055;-80
2022/03/09 00:58:44;;;;;;;3.33;1.98;;;;;;;10.32;81.31;100513.41;2110498;28;20044;-80
2022/03/09 01:00:08;;;;;;;3.42;1.60;;;;;;;10.33;81.46;100512.53;2104456;28;20047;-81
2022/03/09 01:01:31;;;;;;;3.80;1.60;;;;;;;10.31;81.29;100516.91;2102693;28;20040;-80
2022/03/09 01:02:54;;;;;;;5.50;1.83;;;;;;;10.32;81.31;100513.41;2118792;27;20428;-80
2022/03/09 01:04:15;;;;;;;4.07;1.75;;;;;;;10.31;80.97;100515.16;2115584;28;20055;-80
2022/03/09 01:05:38;;;;;;;5.55;1.60;;;;;;;10.28;81.00;100512.50;2112616;28;20043;-80
2022/03/09 01:07:04;;;;;;;4.20;2.20;;;;;;;10.29;80.95;100511.63;2104584;28;20131;-81
2022/03/09 01:08:27;;;;;;;3.08;1.70;;;;;;;10.27;80.60;100516.00;2110904;28;20142;-81
2022/03/09 01:09:48;;;;;;;4.25;1.80;;;;;;;10.26;80.55;100510.69;2121624;27;20080;-81
2022/03/09 01:11:11;;;;;;;3.05;1.42;;;;;;;10.27;80.65;100513.34;2115519;28;20039;-80
2022/03/09 01:12:34;;;;;;;4.28;1.88;;;;;;;10.23;80.38;100511.56;2112961;28;20043;-80
2022/03/09 01:13:57;;;;;;;5.55;1.92;;;;;;;10.17;80.53;100513.22;2098294;28;20151;-80
2022/03/09 01:15:18;;;;;;;6.40;1.70;;;;;;;10.15;80.75;100507.88;2110021;28;20048;-81
2022/03/09 01:16:41;;;;;;;2.28;1.42;;;;;;;10.12;80.75;100513.09;2104489;28;20036;-80
2022/03/09 01:18:04;;;;;;;3.55;1.63;;;;;;;10.12;80.96;100512.22;2093207;28;20048;-81
2022/03/09 01:19:27;;;;;;;5.10;1.80;;;;;;;10.13;80.97;100504.34;2099829;28;20139;-80
2022/03/09 01:20:48;;;;;;;3.70;1.73;;;;;;;10.12;80.86;100514.84;2110264;28;20100;-81
2022/03/09 01:22:13;;;;;;;3.55;1.52;;;;;;;10.05;80.82;100513.00;2098691;28;20534;-80
2022/03/09 01:23:36;;;;;;;4.80;2.25;;;;;;;9.95;80.98;100510.25;2108420;28;20054;-80
2022/03/09 01:24:58;;;;;;;4.30;2.05;;;;;;;9.94;81.22;100504.97;2104492;28;20044;-81
2022/03/09 01:26:21;;;;;;;3.85;2.40;;;;;;;9.94;81.28;100503.22;2112812;28;20079;-80
2022/03/09 01:27:43;;;;;;;4.00;1.50;;;;;;;9.95;81.32;100504.97;2107092;28;20461;-80
2022/03/09 01:29:06;;;;;;;2.63;1.40;;;;;;;9.94;81.26;100497.03;2101914;28;20052;-80
2022/03/09 01:30:29;;;;;;;5.00;2.00;;;;;;;9.93;81.07;100496.16;2095826;28;20139;-80
2022/03/09 01:31:51;;;;;;;5.72;2.85;;;;;;;9.91;81.24;100492.59;2107413;28;20119;-80
2022/03/09 01:33:14;;;;;;;7.05;2.65;;;;;;;9.88;81.01;100497.84;2104194;28;20044;-81
2022/03/09 01:34:36;;;;;;;3.78;1.88;;;;;;;9.89;81.37;100498.75;2106780;28;20056;-80
2022/03/09 01:35:58;;;;;;;9.05;1.92;;;;;;;9.89;81.46;100490.84;2101759;28;20044;-80
2022/03/09 01:37:22;;;;;;;5.10;2.72;;;;;;;9.90;81.40;100495.25;2110213;28;20048;-80
2022/03/09 01:38:44;;;;;;;3.55;2.03;;;;;;;9.88;81.44;100502.25;2104188;28;20491;-80
2022/03/09 01:40:08;;;;;;;5.95;1.88;;;;;;;9.87;81.30;100503.09;2110239;28;20104;-80
2022/03/09 01:41:30;;;;;;;3.45;1.70;;;;;;;9.83;81.39;100498.66;2104261;28;20036;-80
2022/03/09 01:42:53;;;;;;;3.88;1.60;;;;;;;9.82;81.35;100496.88;2109801;28;20059;-81
2022/03/09 01:44:17;;;;;;;3.88;2.00;;;;;;;9.80;81.36;100493.31;2112422;28;20058;-80
2022/03/09 01:45:39;;;;;;;6.25;2.40;;;;;;;9.83;81.39;100496.03;2112672;28;20050;-81
2022/03/09 01:47:02;;;;;;;4.45;1.83;;;;;;;9.86;81.55;100493.41;2103963;28;20660;-82
2022/03/09 01:48:24;;;;;;;6.60;2.95;;;;;;;9.89;81.37;100504.00;2109921;28;20059;-81
2022/03/09 01:49:46;;;;;;;7.97;3.30;;;;;;;9.92;81.20;100504.03;2104182;28;20048;-82
2022/03/09 01:51:08;;;;;;;6.95;3.30;;;;;;;9.92;81.01;100501.41;2104038;28;20101;-82
2022/03/09 01:52:32;;;;;;;6.38;3.03;;;;;;;9.94;80.77;100502.31;2104248;28;20032;-82
2022/03/09 01:53:54;;;;;;;9.10;4.25;;;;;;;9.91;80.79;100502.28;2109927;28;20110;-82
2022/03/09 01:55:17;;;;;;;8.90;5.03;;;;;;;9.90;80.68;100505.78;2112509;28;20048;-82
2022/03/09 01:56:39;;;;;;;10.05;4.25;;;;;;;9.90;80.66;100497.88;2112733;28;20066;-82
2022/03/09 01:58:01;;;;;;;;;;;;;;;9.88;80.42;100492.56;2113070;28;20143;-82
2022/03/09 01:59:22;;;;;;;;;;;;;;;9.82;80.44;100499.53;2104782;28;19920;-82
2022/03/09 02:00:45;;;;;;;7.50;4.50;;;;;;;9.78;80.53;100501.22;2101368;28;19920;-82
2022/03/09 02:02:08;;;;;;;7.28;3.70;;;;;;;9.79;80.56;100500.34;2101630;28;20135;-81
2022/03/09 02:03:30;;;;;;;7.13;3.38;;;;;;;9.81;80.18;100505.66;2109840;28;20039;-82
2022/03/09 02:04:52;;;;;;;5.03;2.65;;;;;;;9.82;79.99;100512.69;2104397;28;20183;-82
2022/03/09 02:06:15;;;;;;;4.95;2.85;;;;;;;9.81;80.05;100505.66;2109666;28;20040;-81
2022/03/09 02:11:00;;;;;;;9.00;5.63;;;;;;;9.64;79.47;100501.88;2114963;28;20047;-82
2022/03/09 02:12:23;;;;;;;4.30;2.33;;;;;;;9.56;79.95;100505.28;2112650;28;20080;-82
2022/03/09 02:13:45;;;;;;;4.88;2.58;;;;;;;9.50;80.29;100513.09;2106549;28;20055;-82
2022/03/09 02:15:09;;;;;;;5.32;2.92;;;;;;;9.47;80.33;100507.78;2112616;28;20043;-82
2022/03/09 02:16:32;;;;;;;6.80;3.35;;;;;;;9.48;80.81;100511.28;2104214;28;20459;-80
2022/03/09 02:17:54;;;;;;;5.20;1.55;;;;;;;9.48;80.83;100513.94;2109863;28;20082;-82
2022/03/09 02:19:17;;;;;;;7.90;2.97;;;;;;;9.47;81.16;100509.53;2112349;28;20105;-81
2022/03/09 02:20:44;;;;;;;3.20;2.03;;;;;;;9.46;81.40;100502.47;2112504;28;20043;-81
2022/03/09 02:22:13;;;;;;;4.97;2.00;;;;;;;9.44;81.48;100515.66;2113352;28;20138;-82
2022/03/09 02:23:37;;;;;;;5.25;2.05;;;;;;;9.45;81.70;100508.63;2113156;28;20383;-81
2022/03/09 02:25:01;;;;;;;9.60;2.95;;;;;;;9.46;81.40;100513.00;2112639;28;20170;-81
2022/03/09 02:26:23;;;;;;;6.72;2.78;;;;;;;9.46;81.41;100513.00;2103807;28;20081;-81
2022/03/09 02:27:46;;;;;;;5.68;3.00;;;;;;;9.47;81.38;100509.53;2109410;28;20154;-81
2022/03/09 02:29:08;;;;;;;6.05;2.92;;;;;;;9.47;81.38;100509.53;2103988;28;20051;-82
2022/03/09 02:30:31;;;;;;;4.32;2.10;;;;;;;9.46;81.25;100513.91;2103772;28;20036;-81
2022/03/09 02:31:52;;;;;;;4.90;1.50;;;;;;;9.46;81.29;100511.25;2101384;28;20393;-81
2022/03/09 02:33:14;;;;;;;3.45;1.85;;;;;;;9.47;81.26;100512.16;2101461;28;20143;-82
2022/03/09 02:34:37;;;;;;;6.43;2.67;;;;;;;9.50;81.21;100515.75;2101334;28;20040;-81
2022/03/09 02:36:00;;;;;;;3.95;2.35;;;;;;;9.51;81.09;100511.38;2109630;28;20055;-82
2022/03/09 02:37:21;;;;;;;6.50;1.88;;;;;;;9.53;80.80;100509.63;2103787;28;20043;-82
2022/03/09 02:38:45;;;;;;;5.55;1.83;;;;;;;9.52;81.02;100506.09;2112365;28;20045;-82
2022/03/09 02:40:10;;;;;;;4.72;2.03;;;;;;;9.49;80.73;100513.97;2104128;28;20039;-81
2022/03/09 02:41:33;;;;;;;2.85;1.75;;;;;;;9.46;80.76;100505.09;2112591;28;20067;-82
2022/03/09 02:42:56;;;;;;;2.45;1.25;;;;;;;9.40;80.86;100511.16;2103908;28;20444;-82
2022/03/09 02:44:18;;;;;;;4.25;1.73;;;;;;;9.36;80.79;100517.25;2101318;28;20044;-82
2022/03/09 02:45:41;;;;;;;2.97;0.75;;;;;;;9.33;81.09;100514.56;2109533;28;20074;-82
2022/03/09 02:47:03;;;;;;;3.47;1.60;;;;;;;9.32;81.06;100514.56;2103812;28;20071;-82
2022/03/09 02:48:25;;;;;;;;;;;;;;;9.32;81.23;100517.19;2109977;28;20130;-82
2022/03/09 02:49:47;;;;;;;7.47;2.38;;;;;;;9.29;81.33;100519.75;2103920;28;19966;-82
2022/03/09 02:51:09;;;;;;;4.60;2.10;;;;;;;9.28;81.45;100505.72;2109514;28;20067;-82
2022/03/09 02:52:31;;;;;;;3.78;1.75;;;;;;;9.26;81.19;100515.31;2104015;28;20052;-83
2022/03/09 02:53:55;;;;;;;5.40;2.83;;;;;;;9.27;81.33;100518.84;2109592;28;20055;-83
2022/03/09 02:55:18;;;;;;;4.50;1.70;;;;;;;9.24;81.44;100521.44;2112325;28;20051;-83
2022/03/09 02:56:41;;;;;;;4.10;1.88;;;;;;;9.22;81.19;100516.16;2112452;28;20043;-83
2022/03/09 02:58:03;;;;;;;1.83;1.08;;;;;;;9.20;81.39;100509.94;2106415;28;20040;-83
2022/03/09 02:59:26;;;;;;;3.75;1.17;;;;;;;9.15;81.34;100516.91;2109644;28;20096;-82
2022/03/09 03:00:49;;;;;;;6.88;2.40;;;;;;;9.15;81.63;100522.16;2103812;28;20036;-85
2022/03/09 03:02:13;;;;;;;3.53;1.95;;;;;;;9.13;81.60;100518.59;2103997;28;20059;-85
2022/03/09 03:03:34;;;;;;;2.92;1.65;;;;;;;9.13;81.40;100534.41;2104019;28;20028;-85
2022/03/09 03:04:57;;;;;;;5.70;2.40;;;;;;;9.12;81.65;100530.03;2101161;28;20515;-85
2022/03/09 03:06:18;;;;;;;6.50;2.67;;;;;;;9.10;81.53;100531.72;2109919;28;20118;-85
2022/03/09 03:07:40;;;;;;;7.20;2.30;;;;;;;9.09;81.64;100533.47;2103897;28;20087;-85
2022/03/09 03:09:04;;;;;;;10.57;3.85;;;;;;;9.09;81.54;100535.22;2109512;28;20432;-84
2022/03/09 03:10:27;;;;;;;4.57;2.58;;;;;;;9.05;81.56;100536.94;2106427;28;20044;-84
2022/03/09 03:11:50;;;;;;;6.05;2.60;;;;;;;9.05;81.58;100525.50;2103983;28;20081;-84
2022/03/09 03:13:11;;;;;;;7.30;2.28;;;;;;;9.02;81.74;100530.69;2103831;28;20131;-84
2022/03/09 03:14:34;;;;;;;3.97;1.85;;;;;;;9.02;81.74;100528.97;2100897;28;20050;-84
2022/03/09 03:15:55;;;;;;;2.90;1.80;;;;;;;9.04;81.50;100536.91;2103936;28;20495;-84
2022/03/09 03:17:18;;;;;;;5.60;2.28;;;;;;;9.05;81.75;100528.13;2111873;28;20403;-84
2022/03/09 03:18:41;;;;;;;6.60;2.65;;;;;;;9.07;81.55;100534.28;2106631;28;20180;-85
2022/03/09 03:20:04;;;;;;;4.25;1.88;;;;;;;9.09;81.32;100532.59;2101508;28;20048;-84
2022/03/09 03:21:26;;;;;;;3.33;1.50;;;;;;;9.07;81.39;100543.09;2118143;28;20047;-84
2022/03/09 03:22:48;;;;;;;2.88;1.30;;;;;;;9.08;81.27;100544.88;2114817;28;20043;-85
2022/03/09 03:24:13;;;;;;;2.83;1.35;;;;;;;9.09;81.04;100537.84;2095612;28;20455;-84
2022/03/09 03:25:34;;;;;;;3.15;1.90;;;;;;;9.07;81.17;100534.28;2110228;28;20048;-84
2022/03/09 03:26:57;;;;;;;6.32;2.35;;;;;;;9.07;80.87;100540.44;2120566;28;20107;-84
2022/03/09 03:28:20;;;;;;;10.40;6.00;;;;;;;9.07;80.65;100553.63;2106375;28;20434;-84
2022/03/09 03:29:43;;;;;;;6.63;3.42;;;;;;;9.05;80.77;100544.81;2101397;28;20134;-84
2022/03/09 03:31:06;;;;;;;14.82;11.60;;;;;;;9.08;80.43;100546.59;2101192;28;20045;-84
2022/03/09 03:32:29;;;;;;;17.65;11.82;;;;;;;9.10;80.27;100553.69;2109679;28;20515;-84
2022/03/09 03:33:51;;;;;;;11.80;7.80;;;;;;;9.13;80.19;100552.84;2103853;28;20048;-85
2022/03/09 03:35:14;;;;;;;3.85;2.30;;;;;;;9.13;80.19;100545.81;2101195;28;20421;-84
2022/03/09 03:36:36;;;;;;;3.13;1.83;;;;;;;9.15;79.75;100554.66;2101176;28;20456;-83
2022/03/09 03:37:59;;;;;;;5.10;2.75;;;;;;;9.18;79.60;100548.56;2102118;28;20079;-85
2022/03/09 03:39:22;;;;;;;3.35;2.00;;;;;;;9.19;79.64;100542.41;2105263;28;20044;-84
2022/03/09 03:40:45;;;;;;;4.05;2.28;;;;;;;9.19;79.40;100537.13;2103007;28;20051;-84
2022/03/09 03:42:08;;;;;;;3.72;2.13;;;;;;;9.19;79.36;100531.88;2111246;28;20080;-85
2022/03/09 03:43:31;;;;;;;4.82;2.80;;;;;;;9.18;79.28;100535.41;2105525;28;20082;-84
2022/03/09 03:44:53;;;;;;;4.07;1.98;;;;;;;9.16;79.47;100545.91;2111225;28;20428;-83
2022/03/09 03:46:16;;;;;;;4.80;2.90;;;;;;;9.11;79.42;100541.41;2105129;28;20518;-84
2022/03/09 03:47:38;;;;;;;5.93;2.42;;;;;;;9.07;79.67;100539.56;2111171;28;20101;-84
2022/03/09 03:49:01;;;;;;;7.20;2.83;;;;;;;9.05;79.97;100546.56;2107988;28;20091;-84
2022/03/09 03:50:23;;;;;;;9.88;3.42;;;;;;;9.04;79.89;100545.69;2111207;28;20104;-85
2022/03/09 03:51:44;;;;;;;8.02;3.33;;;;;;;9.01;79.98;100547.34;2105362;28;20574;-84
2022/03/09 03:53:07;;;;;;;6.57;2.40;;;;;;;9.00;80.29;100542.94;2105226;28;20052;-85
2022/03/09 03:54:31;;;;;;;5.25;1.80;;;;;;;9.00;80.42;100550.84;2113950;28;20055;-85
2022/03/09 03:55:54;;;;;;;11.75;7.45;;;;;;;8.97;80.32;100550.81;2114026;28;20063;-86
2022/03/09 03:57:15;;;;;;;11.00;4.95;;;;;;;8.94;80.50;100550.72;2096981;28;20196;-84
2022/03/09 03:58:38;;;;;;;9.90;4.75;;;;;;;8.91;80.72;100548.94;2108282;28;20043;-85
2022/03/09 04:00:00;;;;;;;8.00;3.35;;;;;;;8.89;80.76;100552.41;2113682;28;20051;-85
2022/03/09 04:01:23;;;;;;;6.82;2.65;;;;;;;8.87;80.81;100552.34;2105558;28;20460;-85
2022/03/09 04:02:45;;;;;;;5.88;3.03;;;;;;;8.82;80.80;100547.88;2111025;28;20046;-86
2022/03/09 04:04:08;;;;;;;6.30;3.50;;;;;;;8.79;81.00;100553.97;2107867;28;20048;-84
2022/03/09 04:05:29;;;;;;;4.72;2.28;;;;;;;8.81;81.12;100546.97;2113866;28;20180;-85
2022/03/09 04:06:52;;;;;;;6.00;2.90;;;;;;;8.82;81.19;100556.66;2105005;28;20044;-85
2022/03/09 04:08:14;;;;;;;12.75;6.18;;;;;;;8.86;81.08;100552.34;2105177;28;20104;-86
2022/03/09 04:09:38;;;;;;;32.75;15.05;;;;;;;8.85;80.96;100550.56;2102623;28;20048;-86
2022/03/09 04:11:01;;;;;;;10.32;6.10;;;;;;;8.89;81.12;100550.66;2102890;28;20130;-87
2022/03/09 04:12:24;;;;;;;8.07;4.60;;;;;;;8.99;81.12;100554.34;2119298;27;20067;-85
2022/03/09 04:13:47;;;;;;;9.15;5.53;;;;;;;9.07;81.06;100558.88;2107818;28;20048;-86
2022/03/09 04:15:10;;;;;;;11.23;7.32;;;;;;;9.12;80.73;100567.75;2111049;28;20051;-85
2022/03/09 04:16:32;;;;;;;10.93;6.80;;;;;;;9.20;80.99;100554.72;2096874;28;20040;-85
2022/03/09 04:17:55;;;;;;;14.15;8.93;;;;;;;9.28;80.73;100560.13;2100060;28;20442;-85
2022/03/09 04:19:18;;;;;;;8.68;5.40;;;;;;;9.34;80.73;100554.97;2119333;27;20126;-86
2022/03/09 04:20:40;;;;;;;8.48;5.40;;;;;;;9.38;80.47;100547.16;2116385;28;20538;-86
2022/03/09 04:22:02;;;;;;;7.75;5.63;;;;;;;9.41;80.72;100551.56;2096711;28;20051;-86
2022/03/09 04:23:24;;;;;;;5.03;2.72;;;;;;;9.43;80.64;100552.50;2100161;28;20070;-87
2022/03/09 04:24:48;;;;;;;7.28;3.60;;;;;;;9.45;80.78;100543.72;2102448;28;20071;-86
2022/03/09 04:26:11;;;;;;;8.05;4.30;;;;;;;9.47;80.67;100546.41;2111155;28;20044;-86
2022/03/09 04:27:34;;;;;;;6.13;3.92;;;;;;;9.48;80.84;100542.91;2113440;28;20052;-86
2022/03/09 04:28:57;;;;;;;4.20;2.70;;;;;;;9.45;80.77;100537.59;2113497;28;20048;-86
2022/03/09 04:30:19;;;;;;;3.63;1.98;;;;;;;9.41;80.81;100538.41;2107821;28;20468;-86
2022/03/09 04:31:42;;;;;;;6.38;3.03;;;;;;;9.38;80.52;100535.72;2113449;28;20039;-85
2022/03/09 04:33:06;;;;;;;2.78;1.33;;;;;;;9.34;80.60;100532.16;2105028;28;20143;-87
2022/03/09 04:34:27;;;;;;;3.05;1.80;;;;;;;9.28;80.35;100537.31;2105308;28;20164;-86
2022/03/09 04:35:50;;;;;;;4.22;1.40;;;;;;;9.24;80.59;100538.13;2102225;28;20126;-87
2022/03/09 04:37:12;;;;;;;3.42;1.63;;;;;;;9.16;80.38;100539.75;2110901;28;20104;-85
2022/03/09 04:38:33;;;;;;;2.80;1.25;;;;;;;9.10;80.40;100535.25;2096744;28;20044;-85
2022/03/09 04:39:58;;;;;;;3.20;1.88;;;;;;;9.04;80.59;100542.16;2099486;28;20086;-85
2022/03/09 04:41:20;;;;;;;2.95;1.23;;;;;;;8.99;80.56;100546.47;2110958;28;20047;-86
2022/03/09 04:42:43;;;;;;;3.10;1.55;;;;;;;8.95;80.78;100545.50;2104997;28;20040;-85
2022/03/09 04:44:05;;;;;;;3.47;1.70;;;;;;;8.92;80.63;100547.22;2111144;28;20383;-85
2022/03/09 04:45:28;;;;;;;2.83;1.30;;;;;;;8.91;80.67;100546.31;2104842;28;20361;-84
2022/03/09 04:46:50;;;;;;;5.47;1.73;;;;;;;8.89;80.54;100544.50;2119369;27;20130;-85
2022/03/09 04:48:13;;;;;;;3.38;1.50;;;;;;;8.84;80.88;100554.94;2107575;28;20414;-85
2022/03/09 04:49:35;;;;;;;3.33;1.48;;;;;;;8.80;80.79;100548.72;2113436;28;20348;-85
2022/03/09 04:50:58;;;;;;;3.92;2.00;;;;;;;8.76;80.81;100554.81;2113268;28;20043;-87
2022/03/09 04:52:21;;;;;;;4.88;1.83;;;;;;;8.74;80.76;100553.88;2113286;28;20099;-88
2022/03/09 04:53:43;;;;;;;6.20;1.63;;;;;;;8.70;81.15;100549.41;2107512;28;20085;-87
2022/03/09 04:55:09;;;;;;;2.22;1.35;;;;;;;8.72;81.21;100545.09;2110464;28;20055;-86
2022/03/09 04:56:30;;;;;;;3.53;1.60;;;;;;;8.70;80.98;100540.63;2107471;28;20032;-83
2022/03/09 04:57:53;;;;;;;1.80;1.00;;;;;;;8.68;81.26;100545.88;2104789;28;20043;-83
2022/03/09 04:59:16;;;;;;;3.80;1.42;;;;;;;8.66;81.36;100550.19;2110693;28;20115;-82
2022/03/09 05:00:39;;;;;;;1.70;1.25;;;;;;;8.65;81.43;100547.56;2105281;28;20044;-83
2022/03/09 05:02:02;;;;;;;2.85;1.63;;;;;;;8.67;81.46;100544.09;2102300;28;20116;-84
2022/03/09 05:03:25;;;;;;;2.88;1.58;;;;;;;8.71;81.61;100548.56;2102265;28;20071;-82
2022/03/09 05:04:47;;;;;;;3.05;1.77;;;;;;;8.74;81.60;100552.97;2102378;28;20044;-86
2022/03/09 05:06:09;;;;;;;2.63;1.58;;;;;;;8.77;81.53;100542.53;2104672;28;20642;-86
2022/03/09 05:07:31;;;;;;;3.25;1.63;;;;;;;8.81;81.69;100544.34;2102056;28;20055;-86
2022/03/09 05:08:54;;;;;;;4.22;2.05;;;;;;;8.89;81.62;100544.50;2110839;28;20055;-86
2022/03/09 05:10:18;;;;;;;4.20;1.58;;;;;;;9.03;82.26;100543.00;2104780;28;20040;-87
2022/03/09 05:11:41;;;;;;;3.90;1.73;;;;;;;9.16;82.54;100540.63;2104806;28;20044;-86
2022/03/09 05:13:03;;;;;;;2.63;1.27;;;;;;;9.30;83.10;100542.63;2110548;28;20096;-86
2022/03/09 05:14:26;;;;;;;2.25;1.23;;;;;;;9.42;83.15;100543.69;2113072;28;20047;-82
2022/03/09 05:15:49;;;;;;;2.97;1.70;;;;;;;9.54;83.68;100533.34;2113098;28;20504;-82
2022/03/09 05:17:12;;;;;;;3.30;1.50;;;;;;;9.68;83.85;100536.22;2112984;28;20058;-81
2022/03/09 05:18:37;;;;;;;4.70;2.03;;;;;;;9.84;84.46;100539.97;2113109;28;20060;-82
2022/03/09 05:19:59;;;;;;;6.93;3.80;;;;;;;9.99;85.08;100542.81;2113418;28;20100;-84
2022/03/09 05:21:22;;;;;;;6.45;3.60;;;;;;;10.11;85.26;100534.22;2104500;28;20481;-83
2022/03/09 05:22:44;;;;;;;5.70;1.80;;;;;;;10.22;85.58;100544.06;2110454;28;20228;-84
2022/03/09 05:24:07;;;;;;;3.40;1.88;;;;;;;10.33;86.02;100544.19;2112949;28;20044;-84
2022/03/09 05:25:31;;;;;;;3.78;1.83;;;;;;;10.43;86.31;100540.81;2113125;28;20076;-82
2022/03/09 05:26:54;;;;;;;6.20;1.73;;;;;;;10.54;86.90;100539.19;2112912;28;20135;-83
2022/03/09 05:28:15;;;;;;;4.43;2.20;;;;;;;10.71;87.38;100548.19;2104405;28;20047;-83
2022/03/09 05:29:38;;;;;;;5.35;1.50;;;;;;;10.86;87.73;100547.47;2118663;27;20131;-84
2022/03/09 05:31:00;;;;;;;4.97;1.70;;;;;;;11.00;88.12;100555.53;2107097;28;20131;-84
2022/03/09 05:32:23;;;;;;;3.55;1.45;;;;;;;11.09;88.38;100559.16;2101964;28;20106;-81
2022/03/09 05:33:44;;;;;;;3.55;1.40;;;;;;;11.18;88.67;100553.97;2110211;28;20044;-82
2022/03/09 05:35:08;;;;;;;3.92;1.75;;;;;;;11.28;88.91;100557.59;2112779;28;20367;-83
2022/03/09 05:36:31;;;;;;;2.22;1.33;;;;;;;11.39;89.16;100550.66;2107051;28;20123;-82
2022/03/09 05:37:53;;;;;;;4.40;1.92;;;;;;;11.45;89.31;100547.16;2101956;28;20036;-82
2022/03/09 05:39:17;;;;;;;3.33;1.90;;;;;;;11.52;89.47;100555.16;2110558;28;20584;-84
2022/03/09 05:40:40;;;;;;;2.22;1.42;;;;;;;11.64;89.58;100549.09;2112935;28;20076;-82
2022/03/09 05:42:02;;;;;;;2.25;1.20;;;;;;;11.69;89.64;100550.00;2115378;28;20174;-85
2022/03/09 05:43:25;;;;;;;6.70;1.90;;;;;;;11.75;89.82;100554.50;2107060;28;20116;-83
2022/03/09 05:44:48;;;;;;;3.67;1.92;;;;;;;11.82;89.82;100551.00;2110353;28;20040;-84
2022/03/09 05:46:11;;;;;;;4.53;1.70;;;;;;;11.91;89.95;100551.06;2107184;28;20036;-81
2022/03/09 05:47:34;;;;;;;3.67;1.77;;;;;;;12.02;90.05;100549.38;2112711;28;20040;-81
2022/03/09 05:48:55;;;;;;;4.60;1.60;;;;;;;12.12;90.20;100550.31;2112731;28;20054;-81
2022/03/09 05:50:18;;;;;;;2.95;1.38;;;;;;;12.21;90.10;100553.00;2112624;28;20051;-80
2022/03/09 05:51:40;;;;;;;2.28;1.33;;;;;;;12.26;90.33;100560.13;2112562;28;20043;-80
2022/03/09 05:53:02;;;;;;;3.15;1.50;;;;;;;12.27;90.05;100550.41;2115362;28;20076;-79
2022/03/09 05:54:24;;;;;;;4.57;2.28;;;;;;;12.34;90.05;100544.25;2112636;28;20043;-83
2022/03/09 05:55:48;;;;;;;3.47;2.13;;;;;;;12.42;90.00;100547.81;2112715;28;20143;-83
2022/03/09 05:57:10;;;;;;;3.08;1.65;;;;;;;12.49;89.84;100546.97;2112830;28;20051;-82
2022/03/09 05:58:33;;;;;;;3.67;1.70;;;;;;;12.58;89.84;100549.69;2104170;28;20044;-83
2022/03/09 05:59:56;;;;;;;4.65;2.28;;;;;;;12.67;89.78;100551.44;2101826;28;20044;-83
2022/03/09 06:01:20;;;;;;;5.30;2.40;;;;;;;12.76;89.56;100546.19;2104134;28;20550;-83
2022/03/09 06:02:42;;;;;;;4.95;2.00;;;;;;;12.88;89.50;100540.03;2101823;28;20048;-82
2022/03/09 06:04:06;;;;;;;5.53;2.17;;;;;;;13.01;89.32;100548.03;2112705;28;20044;-83
2022/03/09 06:05:28;;;;;;;6.32;2.45;;;;;;;13.12;89.18;100549.00;2112708;28;20039;-80
2022/03/09 06:06:51;;;;;;;5.07;2.10;;;;;;;13.24;88.90;100548.13;2104210;28;20135;-80
2022/03/09 06:08:13;;;;;;;4.63;1.85;;;;;;;13.34;88.76;100549.00;2106777;28;20420;-81
2022/03/09 06:09:37;;;;;;;3.33;1.23;;;;;;;13.43;88.41;100541.94;2106854;28;20071;-81
2022/03/09 06:11:01;;;;;;;3.90;1.60;;;;;;;13.59;88.36;100541.94;2106791;28;20570;-82
2022/03/09 06:12:26;;;;;;;4.35;2.15;;;;;;;13.73;88.10;100546.34;2110066;28;20146;-82
2022/03/09 06:13:49;;;;;;;4.75;2.22;;;;;;;13.73;87.58;100543.69;2104236;28;20154;-82
2022/03/09 06:15:10;;;;;;;6.45;2.97;;;;;;;13.80;87.23;100553.41;2101757;28;20147;-82
2022/03/09 06:16:32;;;;;;;6.88;2.88;;;;;;;13.93;86.65;100551.63;2101540;28;20043;-82
2022/03/09 06:17:54;;;;;;;7.00;3.08;;;;;;;14.09;86.26;100553.38;2101217;28;20083;-82
2022/03/09 06:19:16;;;;;;;5.05;2.70;;;;;;;14.21;85.85;100550.69;2109739;28;20130;-82
2022/03/09 06:20:39;;;;;;;6.40;3.08;;;;;;;14.36;85.36;100549.78;2104127;28;20475;-82
2022/03/09 06:22:02;;;;;;;7.18;3.22;;;;;;;14.53;84.92;100550.63;2109920;28;20551;-82
2022/03/09 06:23:25;;;;;;;6.30;3.63;;;;;;;14.68;84.37;100552.31;2112491;28;20085;-82
2022/03/09 06:24:47;;;;;;;8.48;3.88;;;;;;;14.84;83.65;100558.44;2103970;28;20070;-82
2022/03/09 06:26:12;;;;;;;13.70;5.70;;;;;;;15.01;82.87;100554.81;2101655;28;20043;-82
2022/03/09 06:27:40;;;;;;;10.90;5.72;;;;;;;15.16;82.50;100557.34;2118139;27;20087;-82
2022/03/09 06:29:04;;;;;;;10.35;4.93;;;;;;;15.28;81.70;100552.88;2106647;28;20123;-83
2022/03/09 06:30:25;;;;;;;10.40;4.30;;;;;;;15.35;80.89;100555.47;2101482;28;20438;-82